Time;durP1;ratioP1;P1;durP2;ratioP2;P2;SDS_P1;SDS_P2;PMS_P1;PMS_P2;Temp;Humidity;BMP_temperature;BMP_pressure;BME280_temperature;BME280_humidity;BME280_pressure;Samples;Min_cycle;Max_cycle;Signal;HPM_P1;HPM_P2
2021/05/15 00:02:01;;;;;;;12.80;8.35;;;14.80;99.90;;;;;;4900436;29;20036;-78
2021/05/15 00:04:27;;;;;;;10.57;8.60;;;14.80;99.90;;;;;;4917573;29;20068;-78
2021/05/15 00:06:56;;;;;;;12.98;8.93;;;14.80;99.90;;;;;;4917325;29;20028;-78
2021/05/15 00:09:22;;;;;;;14.38;9.15;;;14.80;99.90;;;;;;4900188;29;20032;-78
2021/05/15 00:11:48;;;;;;;14.55;9.90;;;14.80;99.90;;;;;;4917667;29;20028;-78
2021/05/15 00:14:14;;;;;;;13.80;9.90;;;14.80;99.90;;;;;;4900294;29;20511;-78
2021/05/15 00:16:39;;;;;;;11.48;7.78;;;14.80;99.90;;;;;;4917255;29;20103;-78
2021/05/15 00:19:05;;;;;;;10.98;6.80;;;14.80;99.90;;;;;;4917352;29;20405;-78
2021/05/15 00:21:31;;;;;;;9.27;7.05;;;14.70;99.90;;;;;;4917155;29;20031;-78
2021/05/15 00:23:57;;;;;;;8.20;6.07;;;14.70;99.90;;;;;;4916975;29;20024;-78
2021/05/15 00:26:23;;;;;;;8.95;6.70;;;14.70;99.90;;;;;;4917245;29;20024;-78
2021/05/15 00:28:48;;;;;;;8.73;6.05;;;14.60;99.90;;;;;;4916834;29;20235;-78
2021/05/15 00:31:14;;;;;;;6.72;5.43;;;14.70;99.90;;;;;;4917102;29;20030;-78
2021/05/15 00:33:40;;;;;;;6.22;4.88;;;14.60;99.90;;;;;;4917115;29;20035;-78
2021/05/15 00:36:06;;;;;;;6.32;4.93;;;14.60;99.90;;;;;;4899989;29;20060;-78
2021/05/15 00:38:32;;;;;;;4.95;4.45;;;14.60;99.90;;;;;;4916857;29;20047;-78
2021/05/15 00:40:57;;;;;;;5.88;5.25;;;14.60;99.90;;;;;;4916716;29;20043;-78
2021/05/15 00:43:24;;;;;;;16.08;10.52;;;14.50;99.90;;;;;;4916790;29;21358;-78
2021/05/15 00:45:50;;;;;;;15.48;10.00;;;14.60;99.90;;;;;;4916766;29;20021;-78
2021/05/15 00:48:16;;;;;;;17.08;12.15;;;14.60;99.90;;;;;;4899838;29;20441;-78
2021/05/15 00:50:42;;;;;;;17.88;13.38;;;14.60;99.90;;;;;;4916546;29;20030;-78
2021/05/15 00:53:07;;;;;;;20.42;13.88;;;14.60;99.90;;;;;;4916698;29;20488;-78
2021/05/15 00:55:35;;;;;;;19.40;13.30;;;14.50;99.90;;;;;;4899540;29;20056;-78
2021/05/15 00:58:02;;;;;;;18.10;13.75;;;14.60;99.90;;;;;;4899430;29;20039;-78
2021/05/15 01:00:28;;;;;;;19.08;13.85;;;14.60;99.90;;;;;;4899387;29;20452;-78
2021/05/15 01:02:54;;;;;;;18.33;13.00;;;14.70;99.90;;;;;;4916471;29;20028;-78
2021/05/15 01:05:21;;;;;;;17.35;13.07;;;14.60;99.90;;;;;;4916202;29;20059;-78
2021/05/15 01:07:48;;;;;;;18.45;12.48;;;14.50;99.90;;;;;;4899243;29;20450;-78
2021/05/15 01:10:15;;;;;;;18.55;11.90;;;14.50;99.90;;;;;;4916298;29;20032;-78
2021/05/15 01:12:51;;;;;;;19.25;12.93;;;14.50;99.90;;;;;;4916119;29;20055;-78
2021/05/15 01:15:18;;;;;;;14.02;10.93;;;14.50;99.90;;;;;;4916374;29;20028;-78
2021/05/15 01:18:10;;;;;;;16.38;11.20;;;14.40;99.90;;;;;;4916243;29;20087;-78
2021/05/15 01:20:35;;;;;;;14.13;11.32;;;14.50;99.90;;;;;;4913429;29;20048;-78
2021/05/15 01:23:01;;;;;;;13.40;10.35;;;14.50;99.90;;;;;;4916190;29;20495;-78
2021/05/15 01:25:27;;;;;;;13.85;9.75;;;14.40;99.90;;;;;;4915926;29;20056;-78
2021/05/15 01:27:53;;;;;;;12.23;9.80;;;14.40;99.90;;;;;;4899112;29;20032;-78
2021/05/15 01:30:21;;;;;;;13.80;10.02;;;14.40;99.90;;;;;;4916033;29;20024;-78
2021/05/15 01:32:47;;;;;;;12.18;9.52;;;14.40;99.90;;;;;;4917960;29;20035;-78
2021/05/15 01:35:15;;;;;;;13.80;10.57;;;14.40;99.90;;;;;;4915402;29;20488;-78
2021/05/15 01:37:42;;;;;;;12.57;9.63;;;14.40;99.90;;;;;;4915913;29;20456;-78
2021/05/15 01:40:09;;;;;;;14.48;10.32;;;14.40;99.90;;;;;;4915608;29;20107;-78
2021/05/15 01:42:35;;;;;;;12.70;10.32;;;14.40;99.90;;;;;;4898761;29;20028;-78
2021/05/15 01:45:03;;;;;;;14.02;10.15;;;14.40;99.90;;;;;;4915940;29;20017;-78
2021/05/15 01:47:28;;;;;;;12.13;9.88;;;14.40;99.90;;;;;;4898511;29;20020;-78
2021/05/15 01:49:54;;;;;;;13.07;9.95;;;14.40;99.90;;;;;;4898365;29;20040;-78
2021/05/15 01:52:20;;;;;;;16.27;10.30;;;14.40;99.90;;;;;;4898703;29;20052;-78
2021/05/15 01:54:46;;;;;;;16.00;10.02;;;14.50;99.90;;;;;;4915626;29;20158;-78
2021/05/15 01:57:12;;;;;;;13.18;9.43;;;14.40;99.90;;;;;;4915415;29;20254;-78
2021/05/15 01:59:40;;;;;;;14.10;10.63;;;14.50;99.90;;;;;;4915601;29;20033;-78
2021/05/15 02:02:06;;;;;;;19.42;11.23;;;14.50;99.90;;;;;;4915587;29;20054;-78
2021/05/15 02:04:31;;;;;;;13.15;10.00;;;14.50;99.90;;;;;;4915203;29;20496;-78
2021/05/15 02:06:58;;;;;;;12.35;9.93;;;14.50;99.90;;;;;;4915462;29;20024;-78
2021/05/15 02:09:24;;;;;;;15.05;10.98;;;14.50;99.90;;;;;;4898287;29;20392;-78
2021/05/15 02:11:49;;;;;;;16.92;10.35;;;14.50;99.90;;;;;;4915301;29;20114;-78
2021/05/15 02:14:15;;;;;;;15.80;11.00;;;14.50;99.90;;;;;;4915221;29;20425;-78
2021/05/15 02:16:41;;;;;;;16.27;10.75;;;14.50;99.90;;;;;;4915370;29;20378;-78
2021/05/15 02:19:07;;;;;;;14.35;11.18;;;14.60;99.90;;;;;;4898088;29;20293;-78
2021/05/15 02:21:33;;;;;;;16.55;10.65;;;14.50;99.90;;;;;;4915284;29;20484;-78
2021/05/15 02:23:58;;;;;;;16.60;11.43;;;14.50;99.90;;;;;;4915227;29;20029;-78
2021/05/15 02:26:24;;;;;;;14.90;10.63;;;14.50;99.90;;;;;;4915172;29;20024;-78
2021/05/15 02:28:50;;;;;;;14.80;11.45;;;14.50;99.90;;;;;;4915256;29;20160;-78
2021/05/15 02:31:16;;;;;;;11.32;9.85;;;14.50;99.90;;;;;;4914908;29;20075;-78
2021/05/15 02:33:41;;;;;;;14.45;11.52;;;14.50;99.90;;;;;;4898178;29;20028;-78
2021/05/15 02:36:08;;;;;;;16.27;10.52;;;14.50;99.90;;;;;;4915331;29;20484;-78
2021/05/15 02:38:33;;;;;;;15.43;10.57;;;14.50;99.90;;;;;;4914878;29;20028;-78
2021/05/15 02:40:59;;;;;;;16.20;10.80;;;14.50;99.90;;;;;;4915097;29;20025;-78
2021/05/15 02:43:25;;;;;;;11.98;9.90;;;14.50;99.90;;;;;;4915034;29;20024;-78
2021/05/15 02:45:50;;;;;;;14.63;10.57;;;14.50;99.90;;;;;;4914858;29;20028;-78
2021/05/15 02:48:16;;;;;;;11.88;10.13;;;14.50;99.90;;;;;;4918770;29;20046;-78
2021/05/15 02:50:52;;;;;;;15.98;10.95;;;14.50;99.90;;;;;;4901862;29;20036;-78
2021/05/15 02:53:18;;;;;;;19.85;10.68;;;14.50;99.90;;;;;;4918995;29;20084;-78
2021/05/15 02:55:44;;;;;;;14.02;10.30;;;14.40;99.90;;;;;;4918767;29;20028;-78
2021/05/15 02:58:11;;;;;;;15.35;10.52;;;14.40;99.90;;;;;;4918604;29;20035;-78
2021/05/15 03:00:37;;;;;;;11.55;9.40;;;14.30;99.90;;;;;;4901625;29;20039;-78
2021/05/15 03:03:03;;;;;;;17.88;10.15;;;14.30;99.90;;;;;;4918655;29;20028;-77
2021/05/15 03:05:29;;;;;;;13.02;9.75;;;14.30;99.90;;;;;;4918414;29;20047;-78
2021/05/15 03:07:56;;;;;;;12.27;9.32;;;14.30;99.90;;;;;;4918658;29;20032;-78
2021/05/15 03:10:24;;;;;;;14.15;9.93;;;14.30;99.90;;;;;;4918548;29;20571;-78
2021/05/15 03:12:55;;;;;;;13.48;9.60;;;14.30;99.90;;;;;;4918191;29;20043;-78
2021/05/15 03:15:22;;;;;;;13.48;10.25;;;14.30;99.90;;;;;;4901344;29;20023;-78
2021/05/15 03:17:48;;;;;;;13.10;10.20;;;14.30;99.90;;;;;;4918315;29;20039;-78
2021/05/15 03:20:17;;;;;;;13.07;9.88;;;14.30;99.90;;;;;;4901107;29;20028;-78
2021/05/15 03:22:43;;;;;;;14.27;9.68;;;14.30;99.90;;;;;;4918289;29;20039;-78
2021/05/15 03:25:10;;;;;;;12.13;9.45;;;14.30;99.90;;;;;;4901072;29;20384;-78
2021/05/15 03:27:36;;;;;;;13.63;10.27;;;14.30;99.90;;;;;;4918159;29;20107;-78
2021/05/15 03:30:02;;;;;;;15.02;11.32;;;14.30;99.90;;;;;;4918176;29;20028;-78
2021/05/15 03:32:28;;;;;;;18.35;12.18;;;14.20;99.90;;;;;;4920040;29;20046;-78
2021/05/15 03:34:54;;;;;;;19.10;11.88;;;14.20;99.90;;;;;;4918054;29;20476;-78
2021/05/15 03:37:20;;;;;;;19.23;12.40;;;14.20;99.90;;;;;;4918050;29;20039;-78
2021/05/15 03:39:45;;;;;;;18.90;11.65;;;14.20;99.90;;;;;;4917619;29;20032;-78
2021/05/15 03:42:11;;;;;;;17.48;12.90;;;14.10;99.90;;;;;;4900875;29;20437;-78
2021/05/15 03:44:37;;;;;;;16.75;12.35;;;14.10;99.90;;;;;;4900762;29;20392;-78
2021/05/15 03:47:03;;;;;;;16.80;12.07;;;14.10;99.90;;;;;;4900796;29;20024;-78
2021/05/15 03:49:29;;;;;;;18.90;12.70;;;14.10;99.90;;;;;;4917659;29;20020;-78
2021/05/15 03:51:54;;;;;;;15.95;11.55;;;14.10;99.90;;;;;;4917873;29;20522;-78
2021/05/15 03:54:23;;;;;;;17.60;12.43;;;14.10;99.90;;;;;;4917503;29;20469;-78
2021/05/15 03:56:49;;;;;;;14.85;11.80;;;14.00;99.90;;;;;;4917209;29;20032;-78
2021/05/15 03:59:15;;;;;;;15.65;11.60;;;14.00;99.90;;;;;;4917587;29;20027;-78
2021/05/15 04:01:41;;;;;;;15.95;11.82;;;13.90;99.90;;;;;;4917480;29;20036;-78
2021/05/15 04:04:06;;;;;;;20.95;12.25;;;13.90;99.90;;;;;;4917391;29;20048;-78
2021/05/15 04:06:32;;;;;;;17.20;12.15;;;13.90;99.90;;;;;;4917479;29;20087;-78
2021/05/15 04:08:58;;;;;;;14.90;11.15;;;13.80;99.90;;;;;;4917167;29;20028;-78
2021/05/15 04:11:34;;;;;;;13.55;9.80;;;13.70;99.90;;;;;;4900344;29;20040;-78
2021/05/15 04:16:59;;;;;;;16.58;10.70;;;13.70;99.90;;;;;;4917350;29;20032;-78
2021/05/15 04:19:26;;;;;;;17.65;10.70;;;13.70;99.90;;;;;;4917084;29;20028;-78
2021/05/15 04:21:52;;;;;;;15.88;11.65;;;13.70;99.90;;;;;;4917235;29;20370;-78
2021/05/15 04:24:18;;;;;;;16.58;12.02;;;13.60;99.90;;;;;;4917233;29;20189;-78
2021/05/15 04:26:43;;;;;;;16.33;12.30;;;13.60;99.90;;;;;;4917207;29;20035;-78
2021/05/15 04:29:09;;;;;;;15.98;12.10;;;13.60;99.90;;;;;;4916981;29;20028;-78
2021/05/15 04:31:35;;;;;;;18.05;12.27;;;13.70;99.90;;;;;;4900136;29;20032;-78
2021/05/15 04:34:00;;;;;;;23.88;13.45;;;13.70;99.90;;;;;;4916921;29;20052;-78
2021/05/15 04:36:26;;;;;;;16.20;12.13;;;13.80;99.90;;;;;;4917012;29;20103;-78
2021/05/15 04:38:52;;;;;;;16.95;12.50;;;13.80;99.90;;;;;;4916919;29;20196;-78
2021/05/15 04:41:19;;;;;;;21.85;13.88;;;13.80;99.90;;;;;;4916702;29;20024;-78
2021/05/15 04:43:48;;;;;;;19.23;13.82;;;13.80;99.90;;;;;;4916804;29;20091;-78
2021/05/15 04:46:14;;;;;;;19.35;13.63;;;13.80;99.90;;;;;;4898000;29;20140;-78
2021/05/15 04:48:42;;;;;;;19.95;14.48;;;13.80;99.90;;;;;;4897851;29;20064;-78
2021/05/15 04:51:07;;;;;;;20.58;11.85;;;13.80;99.90;;;;;;4896422;29;20084;-78
2021/05/15 04:53:33;;;;;;;17.25;12.25;;;13.80;99.90;;;;;;4897865;29;20033;-78
2021/05/15 04:56:00;;;;;;;14.00;10.73;;;13.70;99.90;;;;;;4897635;29;21041;-78
2021/05/15 04:58:26;;;;;;;18.15;11.80;;;13.80;99.90;;;;;;4897687;29;20051;-78
2021/05/15 05:00:52;;;;;;;23.25;13.40;;;13.80;99.90;;;;;;4897490;29;20430;-77
2021/05/15 05:03:17;;;;;;;18.40;13.32;;;13.80;99.90;;;;;;4897414;29;20025;-79
2021/05/15 05:05:43;;;;;;;19.33;13.80;;;13.70;99.90;;;;;;4898363;29;20404;-78
2021/05/15 05:08:10;;;;;;;22.05;13.50;;;13.80;99.90;;;;;;4881569;29;20032;-78
2021/05/15 05:10:36;;;;;;;20.50;14.60;;;13.90;99.90;;;;;;4897925;29;20028;-78
2021/05/15 05:13:05;;;;;;;20.63;14.05;;;13.90;99.90;;;;;;4898617;29;20035;-78
2021/05/15 05:15:34;;;;;;;22.38;15.20;;;13.90;99.90;;;;;;4881838;29;20028;-78
2021/05/15 05:18:00;;;;;;;22.42;14.60;;;13.90;99.90;;;;;;4881714;29;20081;-77
2021/05/15 05:20:25;;;;;;;20.85;14.10;;;13.90;99.90;;;;;;4881571;29;20040;-78
2021/05/15 05:22:52;;;;;;;19.35;13.95;;;14.00;99.90;;;;;;4898447;29;20025;-78
2021/05/15 05:25:19;;;;;;;21.30;12.55;;;14.00;99.90;;;;;;4898420;29;20493;-78
2021/05/15 05:27:47;;;;;;;18.73;12.15;;;14.00;99.90;;;;;;4898512;29;20081;-77
2021/05/15 05:30:15;;;;;;;13.82;10.18;;;14.00;99.90;;;;;;4898283;29;20028;-77
2021/05/15 05:32:41;;;;;;;14.50;9.70;;;14.10;99.90;;;;;;4881772;29;20038;-77
2021/05/15 05:35:08;;;;;;;15.63;9.52;;;14.20;99.90;;;;;;4898308;29;20024;-77
2021/05/15 05:37:33;;;;;;;12.02;8.63;;;14.20;99.90;;;;;;4898222;29;20036;-77
2021/05/15 05:39:59;;;;;;;12.25;9.07;;;14.30;99.90;;;;;;4898069;29;20031;-77
2021/05/15 05:42:27;;;;;;;10.65;8.10;;;14.30;99.90;;;;;;4907493;29;20028;-78
2021/05/15 05:44:53;;;;;;;7.05;5.97;;;14.40;99.90;;;;;;4916935;29;20374;-78
2021/05/15 05:47:19;;;;;;;9.30;7.47;;;14.40;99.90;;;;;;4900133;29;20031;-77
2021/05/15 05:49:44;;;;;;;6.10;5.43;;;14.50;99.90;;;;;;4916926;29;20028;-77
2021/05/15 05:52:10;;;;;;;6.63;5.80;;;14.50;99.90;;;;;;4899899;29;20036;-77
2021/05/15 05:54:36;;;;;;;7.97;4.88;;;14.50;99.90;;;;;;4900106;29;20368;-77
2021/05/15 05:57:01;;;;;;;10.50;5.90;;;14.60;99.90;;;;;;4900017;29;20036;-78
2021/05/15 05:59:27;;;;;;;9.50;7.40;;;14.70;99.90;;;;;;4916706;29;20078;-77
2021/05/15 06:01:53;;;;;;;11.93;8.50;;;14.70;99.90;;;;;;4916750;29;20031;-78
2021/05/15 06:04:19;;;;;;;11.02;7.93;;;14.80;99.90;;;;;;4916711;29;20048;-77
2021/05/15 06:06:47;;;;;;;11.82;7.45;;;14.90;99.90;;;;;;4899870;29;20540;-77
2021/05/15 06:09:17;;;;;;;12.30;8.70;;;14.90;99.90;;;;;;4916795;29;20032;-78
2021/05/15 06:11:43;;;;;;;16.45;11.80;;;14.90;99.90;;;;;;4916869;29;20040;-78
2021/05/15 06:14:08;;;;;;;18.35;11.20;;;14.90;99.90;;;;;;4919249;29;20028;-75
2021/05/15 06:16:34;;;;;;;16.42;11.20;;;15.00;99.90;;;;;;4935610;29;20032;-75
2021/05/15 06:19:00;;;;;;;15.88;10.60;;;15.00;99.90;;;;;;4918292;29;20030;-76
2021/05/15 06:21:26;;;;;;;17.25;12.35;;;15.00;99.90;;;;;;4918151;29;20400;-76
2021/05/15 06:23:51;;;;;;;19.30;12.55;;;15.00;99.90;;;;;;4935507;29;20047;-76
2021/05/15 06:26:17;;;;;;;18.90;11.63;;;15.00;99.90;;;;;;4935061;29;20416;-75
2021/05/15 06:28:43;;;;;;;17.15;11.48;;;15.00;99.90;;;;;;4934215;29;20527;-75
2021/05/15 06:31:08;;;;;;;16.13;10.57;;;14.90;99.90;;;;;;4935404;29;20030;-75
2021/05/15 06:33:35;;;;;;;4.50;4.10;;;15.00;99.90;;;;;;4918468;29;20094;-75
2021/05/15 06:36:01;;;;;;;12.15;8.65;;;15.20;99.90;;;;;;4917681;29;20475;-74
2021/05/15 06:38:27;;;;;;;14.48;10.52;;;15.30;99.90;;;;;;4934566;29;20031;-74
2021/05/15 06:40:53;;;;;;;17.02;10.32;;;15.20;99.90;;;;;;4934599;29;20082;-75
2021/05/15 06:43:19;;;;;;;10.32;8.57;;;15.20;99.90;;;;;;4916129;29;20066;-75
2021/05/15 06:45:45;;;;;;;11.88;8.85;;;15.20;99.90;;;;;;4902954;29;20685;-75
2021/05/15 06:48:11;;;;;;;9.75;8.40;;;15.20;99.90;;;;;;4915476;29;20027;-74
2021/05/15 06:50:37;;;;;;;11.10;8.52;;;15.20;99.90;;;;;;4912963;29;20036;-74
2021/05/15 06:53:03;;;;;;;11.75;8.80;;;15.20;99.90;;;;;;4896106;29;20032;-74
2021/05/15 06:55:29;;;;;;;11.75;9.35;;;15.30;99.90;;;;;;4914637;29;20484;-74
2021/05/15 06:57:55;;;;;;;17.25;9.85;;;15.20;99.90;;;;;;4897347;29;20087;-74
2021/05/15 07:00:22;;;;;;;13.95;8.07;;;15.20;99.90;;;;;;4914609;29;20512;-74
2021/05/15 07:02:49;;;;;;;9.68;7.88;;;15.20;99.90;;;;;;4914352;29;20058;-74
2021/05/15 07:05:16;;;;;;;12.02;8.43;;;15.30;99.90;;;;;;4897821;29;20070;-74
2021/05/15 07:07:42;;;;;;;10.90;8.32;;;15.20;99.90;;;;;;4914793;29;20120;-74
2021/05/15 07:10:08;;;;;;;12.18;8.30;;;15.30;99.90;;;;;;4914889;29;20532;-74
2021/05/15 07:12:34;;;;;;;11.27;8.07;;;15.40;99.90;;;;;;4914850;29;20027;-74
2021/05/15 07:14:59;;;;;;;9.95;8.45;;;15.40;99.90;;;;;;4913992;29;20111;-74
2021/05/15 07:17:25;;;;;;;10.05;7.78;;;15.50;99.90;;;;;;4911396;29;20059;-74
2021/05/15 07:19:54;;;;;;;7.88;7.13;;;15.50;99.90;;;;;;4905082;29;20043;-74
2021/05/15 07:22:25;;;;;;;11.35;7.65;;;15.60;99.90;;;;;;4898193;29;20020;-74
2021/05/15 07:24:52;;;;;;;14.23;9.35;;;15.60;99.90;;;;;;4903829;29;20493;-74
2021/05/15 07:27:18;;;;;;;13.82;8.82;;;15.70;99.90;;;;;;4906396;29;20021;-75
2021/05/15 07:29:44;;;;;;;11.55;7.68;;;15.70;99.90;;;;;;4903708;29;20358;-74
2021/05/15 07:32:10;;;;;;;12.20;8.05;;;15.80;99.90;;;;;;4903740;29;20025;-75
2021/05/15 07:34:36;;;;;;;9.75;7.85;;;15.80;99.90;;;;;;4912224;29;20401;-74
2021/05/15 07:37:02;;;;;;;8.63;7.20;;;15.90;99.90;;;;;;4911983;29;20480;-74
2021/05/15 07:39:28;;;;;;;8.55;6.63;;;15.90;99.90;;;;;;4896268;29;20172;-74
2021/05/15 07:41:54;;;;;;;9.05;6.47;;;15.90;99.90;;;;;;4909620;29;20047;-74
2021/05/15 07:44:21;;;;;;;8.85;6.63;;;16.00;99.90;;;;;;4909459;29;20032;-74
2021/05/15 07:46:48;;;;;;;9.10;6.68;;;16.00;99.90;;;;;;4897702;29;20103;-74
2021/05/15 07:49:13;;;;;;;5.95;5.35;;;16.00;99.90;;;;;;4909025;29;20085;-74
2021/05/15 07:51:39;;;;;;;5.28;4.78;;;16.10;99.90;;;;;;4906937;29;20054;-74
2021/05/15 07:54:05;;;;;;;6.20;4.72;;;16.10;99.90;;;;;;4909245;29;20199;-74
2021/05/15 07:56:31;;;;;;;5.47;4.47;;;16.20;99.90;;;;;;4905754;29;20025;-74
2021/05/15 07:58:56;;;;;;;6.35;5.05;;;16.20;99.90;;;;;;4907821;29;21344;-74
2021/05/15 08:01:22;;;;;;;6.03;4.47;;;16.30;99.90;;;;;;4906502;29;20036;-74
2021/05/15 08:03:48;;;;;;;4.40;4.10;;;16.50;99.90;;;;;;4890991;29;20056;-74
2021/05/15 08:06:14;;;;;;;5.35;3.70;;;16.50;99.90;;;;;;4906135;29;20115;-74
2021/05/15 08:08:39;;;;;;;4.68;4.30;;;16.50;99.90;;;;;;4904996;29;20036;-74
2021/05/15 08:11:05;;;;;;;4.97;4.22;;;16.60;99.90;;;;;;4906198;29;20020;-74
2021/05/15 08:13:31;;;;;;;13.52;4.82;;;16.70;99.90;;;;;;4890732;29;20027;-74
2021/05/15 08:15:57;;;;;;;3.95;3.55;;;16.80;99.90;;;;;;4908408;29;20072;-74
2021/05/15 08:18:23;;;;;;;4.70;4.22;;;16.80;99.90;;;;;;4910838;29;20067;-74
2021/05/15 08:20:49;;;;;;;8.40;4.90;;;16.80;99.90;;;;;;4907730;29;20520;-74
2021/05/15 08:23:16;;;;;;;7.20;4.85;;;16.80;99.90;;;;;;4912105;29;20028;-74
2021/05/15 08:25:42;;;;;;;6.20;5.00;;;16.70;99.90;;;;;;4925232;29;20040;-74
2021/05/15 08:28:12;;;;;;;9.43;5.80;;;16.70;99.90;;;;;;4917848;29;20365;-74
2021/05/15 08:30:39;;;;;;;6.80;5.35;;;16.80;99.90;;;;;;4911292;29;20038;-74
2021/05/15 08:33:06;;;;;;;5.72;5.18;;;16.80;99.90;;;;;;4911457;29;20199;-74
2021/05/15 08:35:32;;;;;;;5.22;4.75;;;16.90;99.90;;;;;;4913783;29;20023;-74
2021/05/15 08:37:59;;;;;;;6.93;5.18;;;16.90;99.90;;;;;;4915747;29;20193;-74
2021/05/15 08:40:26;;;;;;;8.15;5.32;;;16.90;99.90;;;;;;4912205;29;20492;-74
2021/05/15 08:42:54;;;;;;;5.47;4.93;;;16.90;99.90;;;;;;4909547;29;20478;-74
2021/05/15 08:45:21;;;;;;;7.10;5.20;;;16.90;99.90;;;;;;4894261;29;20028;-74
2021/05/15 08:47:46;;;;;;;7.55;4.95;;;16.90;99.90;;;;;;4908693;29;20028;-74
2021/05/15 08:50:15;;;;;;;11.32;6.25;;;17.00;99.90;;;;;;4912173;29;20020;-74
2021/05/15 08:52:44;;;;;;;5.78;5.18;;;17.00;99.90;;;;;;4909788;29;20032;-74
2021/05/15 08:55:12;;;;;;;6.85;4.90;;;17.00;99.90;;;;;;4911114;29;20026;-74
2021/05/15 08:57:38;;;;;;;5.88;5.13;;;17.10;99.90;;;;;;4895369;29;20527;-74
2021/05/15 09:00:32;;;;;;;7.90;5.35;;;17.20;99.90;;;;;;4913295;29;20021;-74
2021/05/15 09:03:06;;;;;;;8.15;5.57;;;17.10;99.90;;;;;;4903378;29;20056;-75
2021/05/15 09:05:33;;;;;;;5.53;4.32;;;17.10;99.90;;;;;;4896394;29;20054;-74
2021/05/15 09:08:03;;;;;;;5.13;4.63;;;17.20;99.90;;;;;;4896222;29;20072;-74
2021/05/15 09:10:32;;;;;;;4.70;4.30;;;17.10;99.90;;;;;;4895751;29;20083;-74
2021/05/15 09:13:15;;;;;;;7.05;4.85;;;17.10;99.90;;;;;;4901658;29;20036;-75
2021/05/15 09:15:48;;;;;;;5.32;4.88;;;17.10;99.90;;;;;;4889322;29;20096;-74
2021/05/15 09:18:20;;;;;;;5.03;4.53;;;17.20;99.90;;;;;;4900434;29;20385;-74
2021/05/15 09:20:46;;;;;;;;;;;17.20;99.90;;;;;;4907367;29;20027;-74
2021/05/15 09:23:19;;;;;;;7.47;5.07;;;17.20;99.90;;;;;;4910119;29;19997;-74
2021/05/15 09:25:58;;;;;;;5.15;4.68;;;17.20;99.90;;;;;;4911947;29;20047;-74
2021/05/15 09:28:39;;;;;;;4.78;4.28;;;17.10;99.90;;;;;;4910406;29;20032;-75
2021/05/15 09:31:12;;;;;;;5.95;2.95;;;17.20;99.90;;;;;;4910296;29;20028;-77
2021/05/15 09:33:39;;;;;;;2.97;2.70;;;17.30;99.90;;;;;;4910434;29;20039;-77
2021/05/15 09:36:15;;;;;;;5.07;3.53;;;17.20;99.90;;;;;;4914090;29;20027;-77
2021/05/15 09:38:45;;;;;;;5.53;4.93;;;17.30;99.90;;;;;;4905133;29;20696;-77
2021/05/15 09:41:14;;;;;;;6.40;4.75;;;17.30;99.90;;;;;;4893436;29;20122;-76
2021/05/15 09:43:39;;;;;;;4.80;4.22;;;17.40;99.90;;;;;;4914605;29;20026;-77
2021/05/15 09:46:05;;;;;;;5.10;4.70;;;17.50;99.90;;;;;;4909361;29;20032;-77
2021/05/15 09:48:37;;;;;;;7.18;4.68;;;17.40;99.90;;;;;;4910551;29;20395;-77
2021/05/15 09:51:12;;;;;;;;;;;17.50;99.90;;;;;;4901229;29;20212;-77
2021/05/15 09:53:38;;;;;;;6.15;4.75;;;17.50;99.90;;;;;;4894627;29;19918;-77
2021/05/15 09:56:03;;;;;;;5.10;4.28;;;17.50;99.90;;;;;;4896700;29;20028;-77
2021/05/15 09:58:29;;;;;;;5.93;5.32;;;17.50;99.90;;;;;;4919465;29;20027;-77
2021/05/15 10:00:55;;;;;;;4.35;3.75;;;17.50;99.90;;;;;;4929484;29;20032;-77
2021/05/15 10:03:23;;;;;;;9.02;5.07;;;17.60;99.90;;;;;;4913506;29;20028;-74
2021/05/15 10:06:06;;;;;;;4.93;4.50;;;17.70;99.90;;;;;;4914591;29;20139;-74
2021/05/15 10:08:38;;;;;;;6.05;4.28;;;17.70;99.90;;;;;;4914837;29;20481;-74
2021/05/15 10:11:05;;;;;;;5.35;4.22;;;17.80;99.90;;;;;;4914529;29;20035;-74
2021/05/15 10:13:32;;;;;;;11.07;5.00;;;17.80;99.90;;;;;;4914855;29;20036;-74
2021/05/15 10:15:59;;;;;;;7.38;4.97;;;17.80;99.90;;;;;;4914399;29;20024;-74
2021/05/15 10:18:25;;;;;;;5.25;4.22;;;17.80;99.90;;;;;;4896685;29;20111;-74
2021/05/15 10:20:51;;;;;;;7.95;5.18;;;17.80;99.90;;;;;;4900224;29;20040;-74
2021/05/15 10:23:24;;;;;;;6.25;4.97;;;17.90;99.90;;;;;;4930204;29;21017;-74
2021/05/15 10:26:03;;;;;;;5.97;4.35;;;17.90;99.90;;;;;;4934385;29;20028;-74
2021/05/15 10:28:34;;;;;;;4.75;4.32;;;17.80;99.90;;;;;;4934196;29;20031;-74
2021/05/15 10:31:10;;;;;;;7.78;5.15;;;17.90;99.90;;;;;;4934257;29;20110;-74
2021/05/15 10:33:37;;;;;;;6.30;5.00;;;17.90;99.90;;;;;;4928789;29;20051;-74
2021/05/15 10:36:05;;;;;;;7.20;6.45;;;18.00;99.90;;;;;;4914594;29;20028;-75
2021/05/15 10:38:34;;;;;;;8.30;5.40;;;18.00;99.90;;;;;;4913621;29;20028;-74
2021/05/15 10:41:18;;;;;;;5.82;5.32;;;18.10;99.90;;;;;;4914566;29;20032;-74
2021/05/15 10:43:45;;;;;;;7.60;5.40;;;18.10;99.90;;;;;;4914965;29;20123;-74
2021/05/15 10:46:17;;;;;;;4.90;4.50;;;18.20;99.90;;;;;;4914655;29;20016;-74
2021/05/15 10:48:58;;;;;;;5.20;4.80;;;18.30;99.90;;;;;;4915715;29;20039;-74
2021/05/15 10:51:31;;;;;;;6.00;5.40;;;18.40;99.90;;;;;;4922067;29;20039;-74
2021/05/15 10:53:58;;;;;;;7.45;5.75;;;18.50;99.90;;;;;;4919213;29;20329;-74
2021/05/15 10:56:29;;;;;;;9.50;6.43;;;18.50;99.90;;;;;;4917806;29;20564;-74
2021/05/15 10:59:04;;;;;;;7.47;6.03;;;18.60;99.90;;;;;;4926176;29;20028;-74
2021/05/15 11:01:52;;;;;;;7.25;6.60;;;18.60;99.90;;;;;;4928277;29;20095;-74
2021/05/15 11:04:22;;;;;;;7.88;7.07;;;18.60;99.90;;;;;;4923563;29;20044;-74
2021/05/15 11:07:12;;;;;;;10.88;6.40;;;18.50;99.90;;;;;;4920125;29;20036;-74
2021/05/15 11:09:51;;;;;;;8.90;6.28;;;18.60;99.90;;;;;;4921665;29;20388;-75
2021/05/15 11:12:18;;;;;;;9.15;6.82;;;18.70;99.90;;;;;;4927258;29;20035;-75
2021/05/15 11:14:45;;;;;;;9.50;6.13;;;18.70;99.90;;;;;;4904739;29;20028;-75
2021/05/15 11:17:12;;;;;;;6.85;6.13;;;18.70;99.90;;;;;;4927633;29;20484;-75
2021/05/15 11:19:47;;;;;;;8.27;7.30;;;18.80;99.90;;;;;;4914826;29;20549;-75
2021/05/15 11:22:14;;;;;;;8.80;6.90;;;18.90;99.90;;;;;;4928308;29;20043;-75
2021/05/15 11:24:55;;;;;;;7.45;6.60;;;19.00;99.90;;;;;;4917686;29;20493;-75
2021/05/15 11:27:23;;;;;;;8.40;6.85;;;19.10;99.90;;;;;;4925863;29;20020;-76
2021/05/15 11:30:06;;;;;;;7.97;7.18;;;19.10;99.90;;;;;;4917503;29;20028;-75
2021/05/15 11:32:33;;;;;;;10.13;7.30;;;19.10;99.90;;;;;;4918556;29;20032;-75
2021/05/15 11:35:03;;;;;;;8.70;7.30;;;19.10;99.90;;;;;;4903205;29;20484;-74
2021/05/15 11:37:28;;;;;;;8.38;7.47;;;19.30;99.90;;;;;;4900851;29;20020;-74
2021/05/15 11:39:54;;;;;;;9.00;7.05;;;19.30;99.90;;;;;;4928127;29;20364;-74
2021/05/15 11:42:27;;;;;;;9.35;7.45;;;19.40;99.90;;;;;;4910303;29;20508;-75
2021/05/15 11:44:56;;;;;;;8.07;6.85;;;19.40;99.90;;;;;;4922853;29;20028;-75
2021/05/15 11:47:26;;;;;;;9.30;6.68;;;19.30;99.70;;;;;;4909868;29;20023;-75
2021/05/15 11:50:00;;;;;;;7.97;6.75;;;19.20;99.90;;;;;;4924518;29;20110;-75
2021/05/15 11:52:31;;;;;;;8.27;7.47;;;19.20;99.90;;;;;;4923476;29;20507;-75
2021/05/15 11:54:56;;;;;;;8.43;7.55;;;19.30;99.90;;;;;;4930576;29;20039;-75
2021/05/15 11:57:26;;;;;;;7.95;7.15;;;19.30;99.90;;;;;;4931094;29;20032;-75
2021/05/15 11:59:53;;;;;;;8.23;7.53;;;19.30;99.40;;;;;;4926899;29;20432;-75
2021/05/15 12:02:19;;;;;;;9.35;7.50;;;19.20;98.90;;;;;;4906386;29;20060;-75
2021/05/15 12:04:45;;;;;;;7.95;7.15;;;19.30;99.50;;;;;;4926843;29;20052;-75
2021/05/15 12:07:14;;;;;;;8.75;7.10;;;19.40;99.70;;;;;;4913108;29;20380;-75
2021/05/15 12:09:40;;;;;;;10.15;7.53;;;19.40;98.50;;;;;;4929082;29;20028;-75
2021/05/15 12:12:09;;;;;;;8.02;7.22;;;19.30;99.30;;;;;;4924397;29;20031;-75
2021/05/15 12:14:38;;;;;;;8.88;7.43;;;19.40;99.50;;;;;;4926547;29;20024;-76
2021/05/15 12:17:09;;;;;;;7.68;6.88;;;19.40;98.80;;;;;;4905520;29;20024;-75
2021/05/15 12:19:35;;;;;;;9.75;7.50;;;19.50;98.90;;;;;;4911810;29;20054;-75
2021/05/15 12:22:01;;;;;;;7.28;6.63;;;19.50;98.70;;;;;;4902332;29;20028;-75
2021/05/15 12:24:41;;;;;;;7.85;7.05;;;19.50;98.20;;;;;;4924641;29;20083;-74
2021/05/15 12:27:21;;;;;;;7.13;6.40;;;19.50;97.70;;;;;;4916791;29;20028;-75
2021/05/15 12:30:06;;;;;;;7.13;5.90;;;19.60;98.30;;;;;;4915072;29;20024;-75
2021/05/15 12:32:32;;;;;;;6.85;5.82;;;19.70;98.40;;;;;;4915762;29;20071;-75
2021/05/15 12:35:04;;;;;;;6.57;5.97;;;19.80;98.00;;;;;;4901533;29;20027;-75
2021/05/15 12:37:34;;;;;;;6.75;6.18;;;20.00;98.00;;;;;;4908514;29;20024;-75
2021/05/15 12:40:09;;;;;;;7.75;6.80;;;19.90;97.10;;;;;;4923466;29;20067;-75
2021/05/15 12:42:35;;;;;;;7.72;7.00;;;20.10;98.70;;;;;;4915963;29;20463;-75
2021/05/15 12:45:13;;;;;;;8.20;7.18;;;20.00;97.80;;;;;;4919991;29;20030;-75